Time;durP1;ratioP1;P1;durP2;ratioP2;P2;SDS_P1;SDS_P2;PMS_P1;PMS_P2;Temp;Humidity;BMP_temperature;BMP_pressure;BME280_temperature;BME280_humidity;BME280_pressure;Samples;Min_cycle;Max_cycle;Signal;HPM_P1;HPM_P2
2021/03/25 00:00:10;;;;;;;10.67;6.93;;;5.10;99.90;;;;;;5035703;28;20189;-74
2021/03/25 00:02:36;;;;;;;16.07;7.37;;;5.00;99.90;;;;;;5035665;28;20197;-74
2021/03/25 00:05:05;;;;;;;10.87;6.03;;;4.90;99.90;;;;;;5035756;28;20232;-74
2021/03/25 00:07:30;;;;;;;9.83;6.50;;;4.80;99.90;;;;;;5035463;28;20181;-75
2021/03/25 00:09:56;;;;;;;9.70;6.30;;;4.80;99.90;;;;;;5035597;28;20184;-75
2021/03/25 00:12:21;;;;;;;10.37;6.63;;;4.70;99.90;;;;;;5035572;28;20196;-75
2021/03/25 00:14:47;;;;;;;12.10;6.90;;;4.80;99.90;;;;;;5035760;28;20185;-75
2021/03/25 00:17:14;;;;;;;8.17;6.33;;;4.80;99.90;;;;;;5035400;28;20267;-75
2021/03/25 00:19:40;;;;;;;10.77;6.20;;;4.80;99.90;;;;;;5035422;28;20188;-75
2021/03/25 00:22:05;;;;;;;9.50;7.13;;;4.80;99.90;;;;;;5034017;28;20296;-75
2021/03/25 00:24:32;;;;;;;10.17;6.43;;;4.90;99.90;;;;;;5035566;28;20180;-75
2021/03/25 00:26:57;;;;;;;8.97;6.50;;;4.90;99.90;;;;;;5035308;28;20175;-75
2021/03/25 00:29:23;;;;;;;9.13;6.43;;;5.00;99.90;;;;;;5027808;28;20177;-75
2021/03/25 00:31:48;;;;;;;10.20;7.00;;;4.90;99.90;;;;;;5034282;28;20231;-75
2021/03/25 00:34:14;;;;;;;9.80;7.10;;;4.90;99.90;;;;;;5035171;28;20189;-75
2021/03/25 00:36:40;;;;;;;11.47;6.37;;;4.80;99.90;;;;;;5036765;28;20281;-74
2021/03/25 00:39:09;;;;;;;8.60;6.73;;;4.80;99.90;;;;;;5046219;28;20619;-75
2021/03/25 00:41:35;;;;;;;10.07;7.00;;;4.70;99.90;;;;;;5034846;28;20206;-75
2021/03/25 00:44:07;;;;;;;8.67;6.37;;;4.80;99.90;;;;;;5034919;28;20186;-75
2021/03/25 00:46:35;;;;;;;8.73;6.63;;;4.80;99.90;;;;;;5035001;28;20227;-75
2021/03/25 00:49:01;;;;;;;10.33;6.27;;;4.80;99.90;;;;;;5035125;28;20209;-76
2021/03/25 00:51:28;;;;;;;6.77;5.70;;;4.70;99.90;;;;;;5033513;28;20191;-75
2021/03/25 00:53:54;;;;;;;7.90;6.20;;;4.70;99.90;;;;;;5034772;28;20179;-75
2021/03/25 00:56:20;;;;;;;9.63;7.13;;;4.70;99.90;;;;;;5034799;28;20229;-75
2021/03/25 00:58:46;;;;;;;15.20;8.47;;;4.80;99.90;;;;;;5034995;28;20183;-74
2021/03/25 01:01:12;;;;;;;17.03;8.43;;;4.70;99.90;;;;;;5034559;28;20210;-74
2021/03/25 01:03:38;;;;;;;23.73;10.17;;;4.70;99.90;;;;;;5036154;28;20680;-75
2021/03/25 01:06:04;;;;;;;20.73;9.80;;;4.70;99.90;;;;;;5034522;28;20187;-74
2021/03/25 01:08:30;;;;;;;10.10;6.43;;;4.70;99.90;;;;;;5033304;28;20177;-74
2021/03/25 01:11:12;;;;;;;11.63;7.03;;;4.70;99.90;;;;;;5034369;28;20674;-75
2021/03/25 01:13:43;;;;;;;8.97;6.03;;;4.60;99.90;;;;;;5034440;28;20591;-75
2021/03/25 01:16:15;;;;;;;7.07;6.30;;;4.50;99.90;;;;;;5034293;28;20642;-75
2021/03/25 01:18:41;;;;;;;8.97;6.10;;;4.40;99.90;;;;;;5034699;28;20240;-75
2021/03/25 01:21:06;;;;;;;9.27;6.60;;;4.30;99.90;;;;;;5034202;28;20709;-74
2021/03/25 01:23:33;;;;;;;7.70;6.10;;;4.20;99.90;;;;;;5034536;28;20280;-75
2021/03/25 01:25:58;;;;;;;8.27;6.43;;;4.40;99.90;;;;;;5033067;28;20211;-75
2021/03/25 01:28:24;;;;;;;7.93;6.43;;;4.20;99.90;;;;;;5034129;28;20606;-75
2021/03/25 01:30:51;;;;;;;9.37;6.37;;;4.10;99.90;;;;;;5008261;28;20204;-75
2021/03/25 01:33:19;;;;;;;8.27;6.30;;;4.20;99.90;;;;;;5034078;28;20180;-75
2021/03/25 01:35:45;;;;;;;8.87;6.40;;;4.20;99.90;;;;;;5033007;28;20587;-75
2021/03/25 01:38:14;;;;;;;9.43;6.73;;;4.20;99.90;;;;;;5034245;28;20179;-75
2021/03/25 01:40:46;;;;;;;9.50;6.53;;;4.10;99.90;;;;;;5033890;28;20206;-75
2021/03/25 01:43:16;;;;;;;9.07;6.13;;;4.10;99.90;;;;;;5034149;28;20198;-75
2021/03/25 01:45:46;;;;;;;8.80;6.03;;;4.00;99.90;;;;;;5032502;28;20168;-75
2021/03/25 01:48:12;;;;;;;8.00;6.33;;;4.10;99.90;;;;;;5034148;28;20278;-75
2021/03/25 01:50:38;;;;;;;8.70;5.97;;;4.00;99.90;;;;;;5033565;28;20617;-75
2021/03/25 01:53:35;;;;;;;8.57;6.33;;;4.00;99.90;;;;;;5034054;28;20184;-75
2021/03/25 01:56:41;;;;;;;7.37;6.40;;;4.00;99.90;;;;;;5016312;28;20187;-75
2021/03/25 01:59:13;;;;;;;10.03;6.80;;;4.00;99.90;;;;;;5033547;28;20183;-75
2021/03/25 02:01:52;;;;;;;8.67;6.63;;;4.00;99.90;;;;;;5033477;28;20293;-75
2021/03/25 02:04:33;;;;;;;9.57;6.60;;;4.00;99.90;;;;;;5033588;28;20285;-75
2021/03/25 02:07:36;;;;;;;10.10;7.07;;;4.00;99.90;;;;;;5033524;28;20680;-75
2021/03/25 02:10:22;;;;;;;7.47;6.20;;;4.00;99.90;;;;;;5033353;28;20175;-75
2021/03/25 02:12:52;;;;;;;7.97;6.67;;;3.90;99.90;;;;;;5033268;28;20217;-75
2021/03/25 02:15:39;;;;;;;7.57;6.00;;;3.90;99.90;;;;;;5033179;28;20186;-75
2021/03/25 02:18:10;;;;;;;8.80;6.70;;;3.90;99.90;;;;;;5033144;28;20178;-75
2021/03/25 02:20:57;;;;;;;10.40;6.63;;;3.90;99.90;;;;;;5033157;28;20233;-75
2021/03/25 02:23:34;;;;;;;8.53;6.03;;;3.90;99.90;;;;;;5033096;28;20281;-75
2021/03/25 02:26:08;;;;;;;9.63;6.13;;;3.90;99.90;;;;;;5032687;28;20189;-73
2021/03/25 02:28:45;;;;;;;8.97;6.43;;;3.90;99.90;;;;;;5032363;28;20219;-75
2021/03/25 02:31:16;;;;;;;6.40;5.80;;;3.80;99.90;;;;;;5026783;28;20213;-75
2021/03/25 02:33:47;;;;;;;13.90;5.50;;;3.70;99.90;;;;;;5034250;28;20182;-74
2021/03/25 02:36:17;;;;;;;8.23;6.27;;;3.60;99.90;;;;;;5032813;28;20660;-75
2021/03/25 02:38:56;;;;;;;9.67;6.63;;;3.60;99.90;;;;;;5032853;28;20224;-75
2021/03/25 02:41:32;;;;;;;7.43;5.50;;;3.50;99.90;;;;;;5032345;28;20203;-75
2021/03/25 02:44:03;;;;;;;6.23;5.50;;;3.50;99.90;;;;;;5031121;28;20737;-75
2021/03/25 02:46:53;;;;;;;10.83;6.30;;;3.50;99.90;;;;;;5033088;28;20187;-75
2021/03/25 02:49:22;;;;;;;8.33;5.50;;;3.40;99.90;;;;;;5032714;28;20862;-75
2021/03/25 02:52:15;;;;;;;8.73;6.17;;;3.30;99.90;;;;;;5032602;28;20682;-75
2021/03/25 02:54:42;;;;;;;7.80;5.93;;;3.20;99.90;;;;;;5033309;28;20174;-75
2021/03/25 02:57:17;;;;;;;6.50;5.63;;;3.20;99.90;;;;;;5033387;28;20186;-75
2021/03/25 02:59:46;;;;;;;6.47;5.27;;;3.30;99.90;;;;;;5032844;28;20247;-75
2021/03/25 03:02:33;;;;;;;9.27;6.10;;;3.40;99.90;;;;;;5032275;28;20583;-75
2021/03/25 03:05:04;;;;;;;7.97;5.73;;;3.30;99.90;;;;;;5032457;28;20209;-75
2021/03/25 03:07:57;;;;;;;9.30;5.97;;;3.30;99.90;;;;;;5032239;28;20236;-75
2021/03/25 03:10:38;;;;;;;7.47;5.80;;;3.30;99.90;;;;;;5024708;28;20293;-75
2021/03/25 03:13:06;;;;;;;10.47;5.67;;;3.30;99.90;;;;;;5032220;28;20178;-75
2021/03/25 03:15:42;;;;;;;6.47;5.57;;;3.30;99.90;;;;;;5032354;28;20528;-75
2021/03/25 03:18:18;;;;;;;7.23;5.30;;;3.30;99.90;;;;;;5023031;28;20696;-75
2021/03/25 03:20:57;;;;;;;8.40;5.93;;;3.20;99.90;;;;;;5015226;28;20642;-75
2021/03/25 03:23:25;;;;;;;11.17;5.93;;;3.20;99.90;;;;;;5017291;28;20190;-75
2021/03/25 03:25:51;;;;;;;8.53;6.27;;;3.10;99.90;;;;;;5029762;28;20194;-75
2021/03/25 03:28:34;;;;;;;8.47;6.33;;;3.00;99.90;;;;;;5031339;28;20178;-75
2021/03/25 03:31:05;;;;;;;7.40;6.37;;;3.10;99.90;;;;;;5023958;28;20205;-75
2021/03/25 03:33:43;;;;;;;8.20;5.87;;;3.10;99.90;;;;;;5032031;28;20258;-73
2021/03/25 03:36:13;;;;;;;8.23;6.10;;;3.10;99.90;;;;;;5031390;28;20792;-74
2021/03/25 03:38:48;;;;;;;8.87;6.37;;;3.10;99.90;;;;;;5032022;28;20171;-75
2021/03/25 03:41:15;;;;;;;7.27;5.70;;;3.10;99.90;;;;;;5032066;28;20193;-75
2021/03/25 03:43:44;;;;;;;8.90;5.57;;;3.20;99.90;;;;;;5031830;28;20256;-75
2021/03/25 03:46:15;;;;;;;8.70;6.17;;;3.20;99.90;;;;;;5032311;28;20183;-75
2021/03/25 03:48:45;;;;;;;9.33;5.83;;;3.20;99.90;;;;;;5030576;28;20229;-75
2021/03/25 03:51:34;;;;;;;7.80;6.00;;;3.10;99.90;;;;;;5032261;28;20198;-75
2021/03/25 03:54:02;;;;;;;6.57;5.67;;;3.10;99.90;;;;;;5024590;28;20195;-75
2021/03/25 03:56:36;;;;;;;10.47;6.47;;;3.00;99.90;;;;;;5031858;28;20175;-74
2021/03/25 03:59:09;;;;;;;8.57;5.90;;;2.90;99.90;;;;;;5032188;28;20263;-75
2021/03/25 04:01:44;;;;;;;8.20;6.03;;;2.90;99.90;;;;;;5031864;28;20229;-75
2021/03/25 04:04:23;;;;;;;10.13;6.47;;;2.90;99.90;;;;;;5031658;28;20213;-75
2021/03/25 04:06:57;;;;;;;10.13;6.33;;;2.90;99.90;;;;;;5031786;28;20225;-75
2021/03/25 04:09:58;;;;;;;13.57;6.90;;;2.90;99.90;;;;;;5031855;28;20179;-75
2021/03/25 04:12:31;;;;;;;9.37;6.13;;;2.90;99.90;;;;;;5026884;28;20206;-75
2021/03/25 04:15:25;;;;;;;9.43;6.53;;;2.90;99.90;;;;;;5030516;28;20221;-75
2021/03/25 04:17:58;;;;;;;7.80;6.20;;;3.00;99.90;;;;;;5030164;28;20680;-75
2021/03/25 04:20:26;;;;;;;7.10;5.87;;;2.90;99.90;;;;;;5031595;28;20585;-75
2021/03/25 04:23:00;;;;;;;10.33;6.60;;;2.90;99.90;;;;;;5031854;28;20222;-75
2021/03/25 04:25:36;;;;;;;10.37;6.67;;;2.90;99.90;;;;;;5032023;28;20573;-74
2021/03/25 04:28:12;;;;;;;8.40;6.67;;;2.90;99.90;;;;;;5030398;28;20206;-75
2021/03/25 04:30:44;;;;;;;8.87;6.37;;;3.00;99.90;;;;;;5031168;28;20201;-75
2021/03/25 04:33:12;;;;;;;10.07;6.60;;;2.90;99.90;;;;;;5031591;28;20190;-75
2021/03/25 04:35:42;;;;;;;8.40;6.13;;;3.00;99.90;;;;;;5031566;28;20184;-75
2021/03/25 04:38:17;;;;;;;8.67;6.37;;;2.90;99.90;;;;;;5032395;28;20258;-75
2021/03/25 04:40:43;;;;;;;9.53;6.40;;;2.90;99.90;;;;;;5035376;28;20198;-75
2021/03/25 04:43:10;;;;;;;8.47;6.43;;;3.00;99.90;;;;;;5034964;28;20202;-75
2021/03/25 04:45:51;;;;;;;8.10;6.00;;;3.00;99.90;;;;;;5034944;28;20304;-73
2021/03/25 04:48:23;;;;;;;8.33;6.57;;;2.90;99.90;;;;;;5035257;28;20182;-75
2021/03/25 04:51:13;;;;;;;9.23;6.70;;;2.90;99.90;;;;;;5034846;28;20194;-75
2021/03/25 04:53:40;;;;;;;10.07;6.23;;;2.90;99.90;;;;;;5036194;28;20202;-75
2021/03/25 04:56:10;;;;;;;7.90;6.30;;;2.90;99.90;;;;;;5037609;28;20174;-74
2021/03/25 04:58:58;;;;;;;10.27;6.40;;;2.80;99.90;;;;;;5035254;28;20228;-75
2021/03/25 05:01:28;;;;;;;8.13;6.50;;;2.80;99.90;;;;;;5029436;28;20222;-74
2021/03/25 05:04:00;;;;;;;7.67;5.90;;;2.80;99.90;;;;;;5027144;28;20206;-74
2021/03/25 05:06:49;;;;;;;9.47;6.17;;;2.80;99.90;;;;;;5030334;28;20167;-75
2021/03/25 05:09:22;;;;;;;9.43;6.67;;;2.70;99.90;;;;;;5033362;28;20588;-74
2021/03/25 05:11:48;;;;;;;10.17;6.67;;;2.70;99.90;;;;;;5025783;28;20209;-74
2021/03/25 05:14:20;;;;;;;9.13;6.57;;;2.70;99.90;;;;;;5014737;28;20752;-74
2021/03/25 05:17:01;;;;;;;11.77;6.63;;;2.60;99.90;;;;;;5033798;28;20521;-74
2021/03/25 05:19:39;;;;;;;9.57;7.10;;;2.70;99.90;;;;;;5017765;28;20195;-75
2021/03/25 05:22:05;;;;;;;9.63;7.37;;;2.60;99.90;;;;;;5032044;28;20560;-74
2021/03/25 05:24:34;;;;;;;9.97;7.10;;;2.50;99.90;;;;;;5030206;28;20680;-74
2021/03/25 05:27:18;;;;;;;10.83;6.63;;;2.50;99.90;;;;;;5034495;28;20186;-74
2021/03/25 05:29:46;;;;;;;11.43;7.27;;;2.50;99.90;;;;;;5026050;28;20175;-75
2021/03/25 05:32:15;;;;;;;10.67;7.27;;;2.40;99.90;;;;;;5023935;28;20225;-75
2021/03/25 05:34:41;;;;;;;10.53;6.73;;;2.40;99.90;;;;;;5014940;28;20171;-74
2021/03/25 05:37:08;;;;;;;11.40;6.57;;;2.40;99.90;;;;;;5019618;28;20193;-74
2021/03/25 05:39:35;;;;;;;12.03;7.40;;;2.40;99.90;;;;;;5034001;28;20217;-75
2021/03/25 05:42:28;;;;;;;11.73;7.43;;;2.40;99.90;;;;;;5033823;28;20229;-75
2021/03/25 05:45:24;;;;;;;9.33;7.37;;;2.40;99.90;;;;;;5034162;28;20239;-74
2021/03/25 05:48:38;;;;;;;8.73;6.80;;;2.30;99.90;;;;;;5032532;28;20178;-74
2021/03/25 05:51:32;;;;;;;9.80;6.73;;;2.30;99.90;;;;;;5024747;28;20218;-74
2021/03/25 05:54:30;;;;;;;9.47;6.27;;;2.30;99.90;;;;;;5024580;28;20182;-74
2021/03/25 05:57:22;;;;;;;8.10;6.10;;;2.30;99.90;;;;;;5033052;28;20175;-74
2021/03/25 06:00:18;;;;;;;9.23;6.70;;;2.40;99.90;;;;;;5032347;28;20201;-73
2021/03/25 06:02:58;;;;;;;9.67;6.40;;;2.40;99.90;;;;;;5028809;28;20650;-75
2021/03/25 06:05:23;;;;;;;8.07;6.77;;;2.50;99.90;;;;;;5032100;28;20178;-74
2021/03/25 06:08:16;;;;;;;9.97;6.50;;;2.50;99.90;;;;;;5033296;28;20197;-74
2021/03/25 06:11:10;;;;;;;13.20;7.17;;;2.60;99.90;;;;;;5033295;28;20194;-74
2021/03/25 06:13:41;;;;;;;11.03;6.70;;;2.60;99.90;;;;;;5033438;28;20167;-74
2021/03/25 06:16:27;;;;;;;10.23;6.50;;;2.70;99.90;;;;;;5033234;28;20182;-74
2021/03/25 06:19:24;;;;;;;9.03;7.03;;;2.70;99.90;;;;;;5033312;28;20663;-74
2021/03/25 06:22:16;;;;;;;24.10;11.97;;;2.80;99.90;;;;;;5031885;28;20195;-74
2021/03/25 06:25:16;;;;;;;20.33;11.80;;;2.80;99.90;;;;;;5033062;28;20179;-73
2021/03/25 06:28:17;;;;;;;13.57;10.50;;;2.90;99.90;;;;;;5033158;28;20178;-71
2021/03/25 06:31:12;;;;;;;14.33;9.07;;;3.00;99.90;;;;;;5029702;28;20210;-73
2021/03/25 06:34:00;;;;;;;11.17;8.20;;;3.00;99.90;;;;;;5033014;28;20253;-73
2021/03/25 06:36:49;;;;;;;12.90;7.33;;;3.10;99.90;;;;;;5032932;28;20538;-73
2021/03/25 06:39:40;;;;;;;13.67;8.13;;;3.20;99.90;;;;;;5032948;28;20174;-74
2021/03/25 06:42:30;;;;;;;14.87;8.60;;;3.20;99.90;;;;;;5032089;28;20277;-74
2021/03/25 06:45:00;;;;;;;10.73;7.10;;;3.30;99.90;;;;;;5026538;28;20210;-74
2021/03/25 06:47:33;;;;;;;11.00;7.03;;;3.30;99.90;;;;;;5032717;28;20206;-74
2021/03/25 06:50:01;;;;;;;10.83;7.43;;;3.30;99.90;;;;;;5032840;28;20187;-74
2021/03/25 06:52:31;;;;;;;11.23;7.07;;;3.40;99.90;;;;;;5035813;28;20545;-74
2021/03/25 06:55:19;;;;;;;11.50;7.13;;;3.50;99.90;;;;;;5033033;28;20221;-75
2021/03/25 06:57:54;;;;;;;12.47;7.77;;;3.40;99.90;;;;;;5032634;28;20174;-74
2021/03/25 07:00:21;;;;;;;11.13;8.00;;;3.50;99.90;;;;;;5031915;28;20597;-74
2021/03/25 07:02:48;;;;;;;12.17;7.77;;;3.70;99.90;;;;;;5032282;28;20689;-74
2021/03/25 07:05:22;;;;;;;14.23;8.60;;;3.60;99.90;;;;;;5032638;28;20272;-74
2021/03/25 07:07:54;;;;;;;11.57;8.30;;;3.70;99.90;;;;;;5031172;28;20167;-74
2021/03/25 07:10:20;;;;;;;12.37;8.30;;;3.70;99.90;;;;;;5032418;28;20186;-74
2021/03/25 07:12:48;;;;;;;13.87;8.30;;;3.90;99.90;;;;;;5032317;28;20178;-74
2021/03/25 07:15:23;;;;;;;12.20;7.93;;;4.00;99.90;;;;;;5032368;28;20225;-74
2021/03/25 07:17:51;;;;;;;12.37;8.63;;;4.00;99.90;;;;;;5032162;28;20235;-74
2021/03/25 07:20:36;;;;;;;11.03;8.07;;;4.10;99.90;;;;;;5032545;28;20275;-75
2021/03/25 07:23:08;;;;;;;15.23;8.37;;;4.10;99.90;;;;;;5032148;28;20213;-74
2021/03/25 07:25:41;;;;;;;13.90;8.07;;;4.20;99.90;;;;;;5032139;28;20175;-74
2021/03/25 07:28:15;;;;;;;12.73;7.83;;;4.30;99.90;;;;;;5032627;28;20181;-74
2021/03/25 07:30:53;;;;;;;24.97;8.50;;;4.30;99.90;;;;;;5024230;28;20190;-73
2021/03/25 07:33:22;;;;;;;14.87;9.53;;;4.50;99.90;;;;;;5032541;28;20216;-73
2021/03/25 07:36:09;;;;;;;13.23;9.03;;;4.60;99.90;;;;;;5032129;28;20236;-72
2021/03/25 07:42:12;;;;;;;14.67;9.63;;;4.70;99.90;;;;;;5028901;28;20762;-73
2021/03/25 07:54:45;;;;;;;17.50;10.90;;;5.10;99.90;;;;;;5019715;28;20204;-73
2021/03/25 07:57:19;;;;;;;18.93;10.67;;;5.20;99.90;;;;;;5031003;28;20594;-73
2021/03/25 07:59:54;;;;;;;19.43;11.77;;;5.40;99.90;;;;;;5031973;28;20177;-74
2021/03/25 08:02:29;;;;;;;18.13;10.90;;;5.50;99.90;;;;;;5031598;28;20267;-73
2021/03/25 08:04:56;;;;;;;20.20;10.50;;;5.60;99.90;;;;;;5031879;28;20173;-73
2021/03/25 08:07:24;;;;;;;19.93;9.43;;;5.70;99.90;;;;;;5032193;28;20193;-74
2021/03/25 08:09:54;;;;;;;16.60;9.00;;;5.60;99.90;;;;;;5031777;28;20169;-74
2021/03/25 08:12:29;;;;;;;16.97;11.10;;;5.80;99.90;;;;;;5033029;28;20194;-74
2021/03/25 08:15:21;;;;;;;18.90;12.37;;;5.80;99.90;;;;;;5035570;28;20260;-74
2021/03/25 08:17:54;;;;;;;18.53;11.40;;;5.90;99.90;;;;;;5035484;28;20258;-73
2021/03/25 08:20:45;;;;;;;23.57;12.23;;;6.10;99.90;;;;;;5035677;28;20188;-73
2021/03/25 08:23:43;;;;;;;20.63;11.73;;;6.20;99.90;;;;;;5035401;28;20225;-75
2021/03/25 08:26:49;;;;;;;18.07;10.70;;;6.40;99.90;;;;;;5029581;28;20238;-75
2021/03/25 08:29:53;;;;;;;18.47;10.60;;;6.50;99.90;;;;;;5017319;28;20273;-74
2021/03/25 08:32:19;;;;;;;17.23;10.00;;;6.70;99.90;;;;;;5024505;28;20281;-74
2021/03/25 08:35:17;;;;;;;16.20;9.60;;;6.80;99.90;;;;;;5035521;28;20254;-73
2021/03/25 08:37:49;;;;;;;15.53;9.20;;;7.00;99.90;;;;;;5035352;28;20244;-73
2021/03/25 08:40:23;;;;;;;13.30;8.13;;;7.30;99.90;;;;;;5037812;28;20208;-73
2021/03/25 08:42:56;;;;;;;9.83;7.50;;;7.40;99.90;;;;;;5033657;28;20560;-73
2021/03/25 08:45:49;;;;;;;10.90;7.33;;;7.40;99.90;;;;;;5034791;28;20231;-73
2021/03/25 08:48:26;;;;;;;9.50;7.03;;;7.40;99.90;;;;;;5034888;28;20174;-74
2021/03/25 08:51:06;;;;;;;9.23;7.17;;;7.40;99.90;;;;;;5033626;28;20281;-73
2021/03/25 08:53:54;;;;;;;8.60;6.20;;;7.60;99.90;;;;;;5033773;28;20185;-73
2021/03/25 08:56:38;;;;;;;10.77;5.80;;;7.70;99.90;;;;;;5034811;28;20178;-74
2021/03/25 08:59:18;;;;;;;7.47;6.30;;;7.80;99.90;;;;;;5037270;28;20177;-74
2021/03/25 09:01:50;;;;;;;8.80;5.80;;;7.90;99.90;;;;;;5034603;28;20245;-74
2021/03/25 09:04:17;;;;;;;9.23;6.33;;;8.00;99.90;;;;;;5034625;28;20598;-74
2021/03/25 09:06:47;;;;;;;9.27;6.80;;;8.10;99.90;;;;;;5034598;28;20225;-74
2021/03/25 09:09:16;;;;;;;8.07;6.40;;;8.20;99.90;;;;;;5033237;28;20182;-74
2021/03/25 09:11:42;;;;;;;6.20;5.60;;;8.30;99.90;;;;;;5034549;28;20261;-74
2021/03/25 09:14:18;;;;;;;6.27;5.40;;;8.40;99.90;;;;;;5034503;28;20773;-74
2021/03/25 09:16:44;;;;;;;5.83;4.67;;;8.60;99.90;;;;;;5034408;28;20725;-74
2021/03/25 09:19:25;;;;;;;5.37;4.80;;;8.70;99.90;;;;;;5033109;28;20180;-74
2021/03/25 09:21:51;;;;;;;6.73;5.13;;;8.80;99.90;;;;;;5034286;28;20202;-74
2021/03/25 09:24:17;;;;;;;7.13;5.60;;;8.90;99.90;;;;;;5032320;28;20278;-74
2021/03/25 09:26:47;;;;;;;5.87;4.93;;;9.10;99.90;;;;;;5032838;28;20178;-75
2021/03/25 09:29:14;;;;;;;5.83;5.23;;;9.10;99.90;;;;;;5028249;28;20180;-75
2021/03/25 09:31:54;;;;;;;7.17;5.40;;;9.10;99.90;;;;;;5031885;28;20207;-75
2021/03/25 09:34:22;;;;;;;8.00;5.70;;;9.20;99.90;;;;;;5034271;28;20195;-75
2021/03/25 09:37:17;;;;;;;7.70;5.97;;;9.40;99.90;;;;;;5034034;28;20213;-76
2021/03/25 09:39:44;;;;;;;7.17;5.57;;;9.40;99.90;;;;;;5026765;28;20216;-75
2021/03/25 09:42:15;;;;;;;5.67;5.07;;;9.70;99.90;;;;;;5034029;28;20204;-75
2021/03/25 09:44:43;;;;;;;6.43;5.83;;;9.80;99.90;;;;;;5034272;28;20232;-74
2021/03/25 09:47:17;;;;;;;6.37;5.67;;;9.90;99.90;;;;;;5032907;28;20233;-76
2021/03/25 09:49:58;;;;;;;10.27;6.00;;;10.00;99.90;;;;;;5033905;28;20255;-75
2021/03/25 09:52:28;;;;;;;10.50;6.53;;;10.10;99.90;;;;;;5033612;28;20283;-74
2021/03/25 09:54:57;;;;;;;8.33;5.87;;;10.00;99.90;;;;;;5033781;28;20181;-74
2021/03/25 09:57:29;;;;;;;7.57;6.73;;;10.20;99.90;;;;;;5033957;28;20180;-74
2021/03/25 09:59:57;;;;;;;7.57;6.50;;;10.10;99.90;;;;;;5032381;28;20184;-76
2021/03/25 10:02:38;;;;;;;9.83;6.50;;;10.20;99.90;;;;;;5033278;28;20212;-75
2021/03/25 10:05:28;;;;;;;9.37;7.07;;;10.30;99.90;;;;;;5033591;28;20175;-76
2021/03/25 10:08:23;;;;;;;6.80;6.10;;;10.40;99.90;;;;;;5033435;28;20212;-72
2021/03/25 10:10:48;;;;;;;10.77;6.57;;;10.60;99.90;;;;;;5033333;28;20288;-75
2021/03/25 10:13:38;;;;;;;10.17;8.37;;;10.80;99.90;;;;;;5033367;28;20219;-76
2021/03/25 10:16:11;;;;;;;9.17;7.27;;;10.80;99.90;;;;;;5033427;28;20171;-74
2021/03/25 10:18:37;;;;;;;11.43;7.57;;;10.90;99.90;;;;;;5033416;28;20170;-74
2021/03/25 10:21:07;;;;;;;9.13;7.17;;;10.90;99.90;;;;;;5031872;28;20228;-73
2021/03/25 10:23:51;;;;;;;7.07;6.27;;;11.00;99.90;;;;;;5031971;28;20204;-73
2021/03/25 10:26:39;;;;;;;9.20;6.73;;;11.20;99.90;;;;;;5033275;28;20589;-75
2021/03/25 10:29:11;;;;;;;8.90;6.97;;;11.30;99.90;;;;;;5028610;28;20177;-75
2021/03/25 10:31:55;;;;;;;9.30;7.47;;;11.40;99.90;;;;;;5030218;28;20192;-76
2021/03/25 10:34:26;;;;;;;12.73;6.97;;;11.60;99.90;;;;;;5031854;28;20184;-76
2021/03/25 10:36:55;;;;;;;6.93;6.30;;;11.80;99.90;;;;;;5032825;28;20269;-75
2021/03/25 10:39:36;;;;;;;9.87;7.27;;;11.90;99.90;;;;;;5033096;28;20548;-76
2021/03/25 10:42:22;;;;;;;8.97;6.90;;;11.90;99.90;;;;;;5031536;28;20198;-76
2021/03/25 10:44:48;;;;;;;12.87;9.07;;;12.30;99.90;;;;;;5034154;28;20185;-74
2021/03/25 10:47:20;;;;;;;9.93;7.27;;;12.40;99.90;;;;;;5032725;28;20236;-74
2021/03/25 10:50:01;;;;;;;8.27;6.10;;;12.40;99.90;;;;;;5032839;28;20169;-76
2021/03/25 10:52:41;;;;;;;8.97;6.67;;;12.50;99.90;;;;;;5032618;28;20898;-75
2021/03/25 10:55:20;;;;;;;10.47;6.90;;;12.70;99.90;;;;;;5032858;28;20192;-75
2021/03/25 10:57:49;;;;;;;8.57;7.40;;;12.80;99.90;;;;;;5032743;28;20173;-76
2021/03/25 11:00:29;;;;;;;13.97;9.00;;;12.90;99.90;;;;;;5032643;28;20185;-73
2021/03/25 11:02:55;;;;;;;8.00;7.10;;;13.00;99.90;;;;;;5033692;28;20229;-75
2021/03/25 11:05:27;;;;;;;8.73;7.00;;;13.10;99.90;;;;;;5032586;28;20181;-74
2021/03/25 11:08:00;;;;;;;8.00;6.57;;;13.10;99.90;;;;;;5032959;28;20284;-76
2021/03/25 11:10:32;;;;;;;9.07;6.67;;;13.30;99.90;;;;;;5032657;28;20696;-76
2021/03/25 11:13:17;;;;;;;7.63;6.43;;;13.50;99.90;;;;;;5032478;28;20206;-76
2021/03/25 11:15:45;;;;;;;10.33;6.83;;;13.70;99.90;;;;;;5032427;28;20264;-76
2021/03/25 11:18:20;;;;;;;10.43;8.33;;;13.70;99.90;;;;;;5032598;28;20182;-76
2021/03/25 11:20:47;;;;;;;9.00;7.27;;;13.90;99.90;;;;;;5031209;28;20218;-75
2021/03/25 11:23:15;;;;;;;10.13;6.80;;;14.00;99.90;;;;;;5030879;28;20195;-75
2021/03/25 11:25:41;;;;;;;9.67;6.80;;;14.10;99.90;;;;;;5032364;28;20180;-74
2021/03/25 11:28:13;;;;;;;8.33;6.43;;;14.20;99.90;;;;;;5032338;28;20782;-75
2021/03/25 11:30:46;;;;;;;7.43;6.17;;;14.30;99.90;;;;;;5022619;28;20251;-75
2021/03/25 11:33:29;;;;;;;7.77;6.43;;;14.40;99.90;;;;;;5032303;28;20227;-75
2021/03/25 11:35:57;;;;;;;7.77;6.60;;;14.50;99.90;;;;;;5032547;28;20498;-74
2021/03/25 11:38:27;;;;;;;8.30;5.80;;;14.50;99.90;;;;;;5032356;28;20178;-76
2021/03/25 11:40:56;;;;;;;7.63;5.97;;;14.60;99.90;;;;;;5032461;28;20256;-75
2021/03/25 11:43:41;;;;;;;8.37;6.60;;;14.80;99.90;;;;;;5032204;28;20244;-77
2021/03/25 11:46:07;;;;;;;8.77;6.30;;;14.90;99.90;;;;;;5031237;28;20178;-75
2021/03/25 11:48:35;;;;;;;15.03;6.67;;;15.00;99.90;;;;;;5036106;28;20308;-74
2021/03/25 11:51:16;;;;;;;10.90;6.90;;;15.10;99.90;;;;;;5034916;28;20205;-75
2021/03/25 11:53:50;;;;;;;10.43;7.30;;;15.10;99.90;;;;;;5036766;28;20213;-75
2021/03/25 11:56:38;;;;;;;7.67;6.40;;;15.10;99.90;;;;;;5036652;28;20174;-76
2021/03/25 11:59:12;;;;;;;10.10;6.57;;;15.10;99.90;;;;;;5032080;28;20269;-75
2021/03/25 12:01:42;;;;;;;9.60;6.67;;;15.20;99.90;;;;;;5035865;28;20712;-75
2021/03/25 12:04:13;;;;;;;12.30;6.33;;;15.40;99.90;;;;;;5036226;28;20565;-75
2021/03/25 12:06:58;;;;;;;10.93;6.83;;;15.60;99.90;;;;;;5036037;28;20174;-75
2021/03/25 12:09:24;;;;;;;7.43;6.47;;;15.70;99.90;;;;;;5035623;28;20253;-77
2021/03/25 12:11:50;;;;;;;10.60;6.67;;;15.80;99.90;;;;;;5035969;28;20273;-75
2021/03/25 12:14:19;;;;;;;9.80;6.10;;;16.00;99.90;;;;;;5036029;28;20281;-76
2021/03/25 12:16:46;;;;;;;8.60;6.43;;;16.00;99.90;;;;;;5035793;28;20206;-76
2021/03/25 12:19:15;;;;;;;7.93;6.07;;;16.10;99.90;;;;;;5035679;28;20655;-75
2021/03/25 12:21:42;;;;;;;9.43;6.03;;;16.20;99.90;;;;;;5034430;28;20244;-76
2021/03/25 12:24:10;;;;;;;11.83;5.77;;;16.40;99.90;;;;;;5035708;28;20218;-76
2021/03/25 12:26:36;;;;;;;7.60;5.63;;;16.30;99.90;;;;;;5034184;28;20171;-75
2021/03/25 12:29:04;;;;;;;7.10;5.50;;;16.30;99.90;;;;;;5031048;28;20193;-75
2021/03/25 12:31:33;;;;;;;7.33;5.87;;;16.30;99.90;;;;;;5030388;28;20313;-76
2021/03/25 12:33:59;;;;;;;9.77;5.37;;;16.30;99.90;;;;;;5035477;28;20256;-77
2021/03/25 12:36:25;;;;;;;7.80;5.60;;;16.50;99.90;;;;;;5035299;28;20257;-76
2021/03/25 12:38:52;;;;;;;8.37;5.90;;;16.50;99.90;;;;;;5033979;28;20197;-76
2021/03/25 12:41:35;;;;;;;7.63;5.40;;;16.50;99.90;;;;;;5036554;28;20205;-76
2021/03/25 12:44:01;;;;;;;8.10;5.13;;;16.50;99.90;;;;;;5031365;28;20225;-76
2021/03/25 12:46:27;;;;;;;8.67;4.97;;;16.60;99.90;;;;;;5035329;28;20174;-77
2021/03/25 12:48:53;;;;;;;5.50;4.80;;;16.70;99.90;;;;;;5035315;28;20241;-77
2021/03/25 12:51:19;;;;;;;7.07;4.47;;;16.70;99.90;;;;;;5033708;28;20230;-78
2021/03/25 12:53:46;;;;;;;5.70;4.30;;;16.60;99.90;;;;;;5035005;28;20244;-75
2021/03/25 12:56:24;;;;;;;6.20;4.30;;;16.80;99.90;;;;;;5034989;28;20223;-75
2021/03/25 12:58:51;;;;;;;5.13;3.73;;;16.80;99.90;;;;;;5032412;28;20751;-77
2021/03/25 13:01:21;;;;;;;5.33;3.90;;;16.70;99.90;;;;;;5045847;28;20214;-76
2021/03/25 13:03:50;;;;;;;4.87;3.90;;;16.60;99.90;;;;;;5033778;28;20198;-75
2021/03/25 13:06:17;;;;;;;4.27;3.80;;;16.60;99.90;;;;;;5034747;28;20695;-76
2021/03/25 13:08:43;;;;;;;6.93;3.53;;;16.60;99.90;;;;;;5034871;28;20187;-75
2021/03/25 13:11:11;;;;;;;6.20;3.77;;;16.60;99.90;;;;;;5034625;28;20202;-76
2021/03/25 13:13:37;;;;;;;4.80;3.73;;;16.70;99.90;;;;;;5034740;28;20548;-76
2021/03/25 13:16:03;;;;;;;4.00;3.30;;;16.60;99.90;;;;;;5034449;28;20178;-75
2021/03/25 13:18:28;;;;;;;5.10;3.97;;;16.60;99.90;;;;;;5034086;28;20182;-75
2021/03/25 13:20:54;;;;;;;3.87;3.20;;;16.70;99.90;;;;;;5018736;28;20215;-77
2021/03/25 13:23:22;;;;;;;3.73;2.90;;;16.70;99.90;;;;;;5020170;28;20683;-73
2021/03/25 13:25:48;;;;;;;4.43;2.90;;;16.90;99.90;;;;;;5032903;28;20183;-77
2021/03/25 13:28:16;;;;;;;3.00;2.47;;;17.00;98.40;;;;;;5031095;28;20175;-74
2021/03/25 13:30:42;;;;;;;5.03;2.20;;;17.10;98.70;;;;;;5025404;28;20244;-75
2021/03/25 13:33:09;;;;;;;4.27;2.30;;;17.10;97.60;;;;;;5025741;28;20186;-75
2021/03/25 13:35:37;;;;;;;3.73;2.37;;;17.20;98.50;;;;;;5032748;28;20265;-76
2021/03/25 13:38:03;;;;;;;2.43;1.93;;;17.20;97.00;;;;;;5034151;28;20190;-74
2021/03/25 13:40:32;;;;;;;4.03;2.10;;;17.20;97.40;;;;;;5033969;28;20202;-75